createdAt,value
2019-01-31T00:02:19.442Z,61.75
2019-01-31T00:04:57.609Z,58.15
2019-01-31T00:07:57.802Z,51.55
2019-01-31T00:10:43.702Z,60.05
2019-01-31T00:13:42.102Z,57.67
2019-01-31T00:16:55.565Z,59.85
2019-01-31T00:19:34.262Z,57.50
2019-01-31T00:22:35.379Z,55.38
2019-01-31T00:25:16.721Z,54.33
2019-01-31T00:28:10.154Z,48.68
2019-01-31T00:31:09.530Z,55.88
2019-01-31T00:34:13.870Z,70.08
2019-01-31T00:37:02.911Z,62.10
2019-01-31T00:40:10.967Z,50.55
2019-01-31T00:43:04.979Z,47.45
2019-01-31T00:46:06.541Z,55.03
2019-01-31T00:48:56.731Z,60.00
2019-01-31T00:52:02.922Z,57.80
2019-01-31T00:54:41.041Z,63.08
2019-01-31T00:57:33.277Z,54.53
2019-01-31T01:00:22.115Z,56.10
2019-01-31T01:03:18.383Z,59.35
2019-01-31T01:06:10.918Z,58.28
2019-01-31T01:09:07.621Z,55.88
2019-01-31T01:11:56.207Z,55.90
2019-01-31T01:14:49.753Z,57.33
2019-01-31T01:17:44.943Z,60.52
2019-01-31T01:20:33.310Z,57.58
2019-01-31T01:23:18.942Z,66.85
2019-01-31T01:25:58.082Z,53.35
2019-01-31T01:29:04.253Z,56.23
2019-01-31T01:31:46.798Z,52.45
2019-01-31T01:34:38.119Z,54.20
2019-01-31T01:37:31.353Z,49.80
2019-01-31T01:40:27.233Z,52.88
2019-01-31T01:43:12.507Z,57.27
2019-01-31T01:46:21.985Z,58.13
2019-01-31T01:49:03.055Z,57.33
2019-01-31T01:51:57.056Z,49.65
2019-01-31T01:55:10.792Z,51.35
2019-01-31T01:57:53.331Z,52.50
2019-01-31T02:01:06.793Z,47.30
2019-01-31T02:04:12.863Z,52.73
2019-01-31T02:06:57.879Z,57.40
2019-01-31T02:10:04.218Z,52.08
2019-01-31T02:13:20.719Z,48.55
2019-01-31T02:16:30.725Z,50.10
2019-01-31T02:19:30.909Z,60.52
2019-01-31T02:22:19.253Z,54.73
2019-01-31T02:25:09.139Z,51.00
2019-01-31T02:28:19.022Z,57.65
2019-01-31T02:31:24.270Z,52.05
2019-01-31T02:34:07.523Z,62.43
2019-01-31T02:36:49.731Z,58.15
2019-01-31T02:39:45.452Z,57.23
2019-01-31T02:42:45.146Z,56.15
2019-01-31T02:45:34.410Z,65.97
2019-01-31T02:48:30.747Z,54.08
2019-01-31T02:51:32.305Z,55.30
2019-01-31T02:54:39.900Z,58.08
2019-01-31T02:57:36.175Z,49.15
2019-01-31T03:00:51.555Z,53.90
2019-01-31T03:03:48.475Z,50.75
2019-01-31T03:06:32.830Z,59.35
2019-01-31T03:09:31.324Z,54.67
2019-01-31T03:12:10.305Z,56.00
2019-01-31T03:15:05.918Z,51.65
2019-01-31T03:18:03.602Z,53.75
2019-01-31T03:21:04.372Z,64.45
2019-01-31T03:24:25.012Z,63.35
2019-01-31T03:27:37.116Z,63.08
2019-01-31T03:30:45.070Z,60.58
2019-01-31T03:33:58.322Z,58.23
2019-01-31T03:37:09.938Z,57.73
2019-01-31T03:40:06.273Z,58.70
2019-01-31T03:43:00.074Z,66.05
2019-01-31T03:46:02.433Z,52.23
2019-01-31T03:48:55.455Z,54.18
2019-01-31T03:51:35.077Z,61.63
2019-01-31T03:54:37.816Z,57.65
2019-01-31T03:57:35.356Z,54.65
2019-01-31T04:00:20.706Z,56.05
2019-01-31T04:03:07.903Z,52.90
2019-01-31T04:05:43.251Z,57.45
2019-01-31T04:08:14.018Z,53.65
2019-01-31T04:10:44.578Z,55.88
2019-01-31T04:13:14.756Z,49.25
2019-01-31T04:15:45.367Z,58.13
2019-01-31T04:18:15.701Z,55.85
2019-01-31T04:20:45.850Z,51.55
2019-01-31T04:23:16.210Z,56.50
2019-01-31T04:25:46.443Z,56.10
2019-01-31T04:28:16.803Z,54.05
2019-01-31T04:30:49.401Z,62.35
2019-01-31T04:33:21.654Z,54.48
2019-01-31T04:35:51.916Z,49.45
2019-01-31T04:38:22.310Z,52.35
2019-01-31T04:40:52.701Z,53.30
2019-01-31T04:43:22.789Z,50.30
2019-01-31T04:45:52.918Z,58.50
2019-01-31T04:48:29.543Z,53.87
2019-01-31T04:50:59.924Z,45.65
2019-01-31T04:53:30.255Z,48.78
2019-01-31T04:56:00.803Z,51.37
2019-01-31T04:58:31.119Z,47.13
2019-01-31T05:01:01.672Z,54.98
2019-01-31T05:03:31.831Z,56.63
2019-01-31T05:06:01.890Z,57.67
2019-01-31T05:08:32.025Z,58.90
2019-01-31T05:11:02.420Z,52.80
2019-01-31T05:13:32.999Z,53.92
2019-01-31T05:16:04.080Z,50.48
2019-01-31T05:18:34.721Z,50.65
2019-01-31T05:21:05.261Z,54.45
2019-01-31T05:23:36.078Z,56.60
2019-01-31T05:26:06.386Z,50.95
2019-01-31T05:28:36.715Z,49.42
2019-01-31T05:31:06.885Z,48.63
2019-01-31T05:33:37.281Z,48.75
2019-01-31T05:36:07.403Z,63.25
2019-01-31T05:38:37.509Z,47.80
2019-01-31T05:41:07.910Z,52.30
2019-01-31T05:43:38.010Z,43.78
2019-01-31T05:46:08.190Z,57.10
2019-01-31T05:48:38.582Z,59.00
2019-01-31T05:51:08.921Z,51.00
2019-01-31T05:53:39.327Z,51.33
2019-01-31T05:56:09.425Z,47.05
2019-01-31T05:58:39.813Z,54.73
2019-01-31T06:01:10.148Z,62.27
2019-01-31T06:03:40.459Z,58.60
2019-01-31T06:06:10.618Z,59.30
2019-01-31T06:08:40.748Z,50.15
2019-01-31T06:11:11.097Z,45.40
2019-01-31T06:13:41.458Z,52.85
2019-01-31T06:16:11.549Z,53.87
2019-01-31T06:18:41.673Z,56.33
2019-01-31T06:21:11.753Z,49.00
2019-01-31T06:23:42.154Z,51.60
2019-01-31T06:26:12.485Z,57.48
2019-01-31T06:28:42.855Z,51.42
2019-01-31T06:31:13.263Z,50.52
2019-01-31T06:33:43.454Z,50.50
2019-01-31T06:36:13.533Z,49.48
2019-01-31T06:38:43.954Z,52.25
2019-01-31T06:41:18.787Z,46.75
2019-01-31T06:43:46.117Z,55.98
2019-01-31T06:46:16.193Z,53.28
2019-01-31T06:48:46.329Z,51.33
2019-01-31T06:51:16.397Z,52.65
2019-01-31T06:53:46.525Z,53.52
2019-01-31T06:56:16.602Z,63.78
2019-01-31T06:58:46.953Z,53.20
2019-01-31T07:01:17.299Z,49.53
2019-01-31T07:03:47.435Z,52.05
2019-01-31T07:06:17.493Z,50.05
2019-01-31T07:08:47.845Z,47.65
2019-01-31T07:11:29.302Z,51.23
2019-01-31T07:13:50.533Z,49.00
2019-01-31T07:16:20.853Z,50.38
2019-01-31T07:18:51.250Z,55.90
2019-01-31T07:21:21.585Z,54.27
2019-01-31T07:23:51.974Z,46.92
2019-01-31T07:26:22.292Z,44.33
2019-01-31T07:28:52.437Z,52.35
2019-01-31T07:31:22.573Z,52.23
2019-01-31T07:33:52.730Z,49.93
2019-01-31T07:36:23.055Z,44.08
2019-01-31T07:38:53.425Z,60.10
2019-01-31T07:41:23.768Z,54.90
2019-01-31T07:43:54.239Z,53.48
2019-01-31T07:46:24.323Z,51.13
2019-01-31T07:48:54.738Z,55.67
2019-01-31T07:51:25.074Z,47.53
2019-01-31T07:53:55.204Z,48.83
2019-01-31T07:56:25.297Z,48.68
2019-01-31T07:58:55.426Z,49.85
2019-01-31T08:01:25.796Z,47.98
2019-01-31T08:04:02.650Z,44.73
2019-01-31T08:06:27.714Z,44.93
2019-01-31T08:08:57.969Z,66.20
2019-01-31T08:11:28.301Z,42.70
2019-01-31T08:13:58.493Z,43.73
2019-01-31T08:16:28.700Z,53.42
2019-01-31T08:18:59.307Z,50.17
2019-01-31T08:21:29.461Z,43.90
2019-01-31T08:23:59.845Z,52.65
2019-01-31T08:26:29.978Z,46.83
2019-01-31T08:29:00.062Z,46.18
2019-01-31T08:31:31.359Z,41.13
2019-01-31T08:34:01.581Z,50.58
2019-01-31T08:36:31.744Z,50.70
2019-01-31T08:39:02.093Z,42.05
2019-01-31T08:41:34.109Z,43.65
2019-01-31T08:44:04.766Z,46.68
2019-01-31T08:46:35.174Z,42.83
2019-01-31T08:49:06.401Z,50.23
2019-01-31T08:51:36.613Z,42.88
2019-01-31T08:54:06.850Z,41.33
2019-01-31T08:56:36.929Z,45.08
2019-01-31T08:59:07.217Z,45.45
2019-01-31T09:01:37.297Z,42.25
2019-01-31T09:04:07.441Z,48.95
2019-01-31T09:06:37.514Z,45.63
2019-01-31T09:09:11.297Z,43.35
2019-01-31T09:11:41.651Z,49.53
2019-01-31T09:14:11.947Z,44.73
2019-01-31T09:16:42.033Z,49.67
2019-01-31T09:19:12.642Z,49.38
2019-01-31T09:21:50.498Z,49.93
2019-01-31T09:24:41.524Z,48.35
2019-01-31T09:27:55.636Z,54.15
2019-01-31T09:30:45.388Z,42.33
2019-01-31T09:34:08.898Z,47.62
2019-01-31T09:37:25.801Z,47.40
2019-01-31T09:40:40.504Z,47.40
2019-01-31T09:43:57.793Z,47.45
2019-01-31T09:46:37.759Z,46.58
2019-01-31T09:49:28.336Z,47.10
2019-01-31T09:52:20.793Z,45.55
2019-01-31T09:55:11.293Z,42.27
2019-01-31T09:58:15.404Z,45.48
2019-01-31T10:01:33.264Z,42.53
2019-01-31T10:04:22.666Z,45.35
2019-01-31T10:07:06.641Z,46.70
2019-01-31T10:09:57.708Z,44.80
2019-01-31T10:12:47.198Z,34.73
2019-01-31T10:15:57.793Z,46.50
2019-01-31T10:18:50.313Z,59.73
2019-01-31T10:21:34.962Z,42.25
2019-01-31T10:24:34.990Z,40.37
2019-01-31T10:27:54.592Z,40.15
2019-01-31T10:30:36.437Z,38.28
2019-01-31T10:33:59.836Z,40.25
2019-01-31T10:36:37.217Z,42.75
2019-01-31T10:39:12.458Z,41.35
2019-01-31T10:42:12.980Z,40.57
2019-01-31T10:45:06.847Z,33.47
2019-01-31T10:48:12.016Z,44.57
2019-01-31T10:50:58.596Z,39.50
2019-01-31T10:53:58.221Z,42.20
2019-01-31T10:57:14.862Z,38.30
2019-01-31T11:00:10.584Z,36.30
2019-01-31T11:03:17.040Z,34.87
2019-01-31T11:06:17.344Z,40.30
2019-01-31T11:09:27.657Z,32.47
2019-01-31T11:12:27.508Z,28.67
2019-01-31T11:15:23.797Z,31.20
2019-01-31T11:18:19.448Z,32.38
2019-01-31T11:21:19.977Z,31.30
2019-01-31T11:24:34.897Z,28.37
2019-01-31T11:27:45.350Z,31.90
2019-01-31T11:30:34.878Z,30.33
2019-01-31T11:33:27.229Z,35.30
2019-01-31T11:36:23.409Z,31.77
2019-01-31T11:39:27.045Z,32.07
2019-01-31T11:42:19.022Z,38.77
2019-01-31T11:45:13.773Z,37.00
2019-01-31T11:47:56.349Z,35.23
2019-01-31T11:51:10.513Z,33.70
2019-01-31T11:54:03.210Z,34.27
2019-01-31T11:57:05.552Z,34.80
2019-01-31T11:59:35.400Z,30.87
2019-01-31T12:02:06.385Z,40.73
2019-01-31T12:04:36.696Z,32.05
2019-01-31T12:07:07.081Z,32.57
2019-01-31T12:09:37.401Z,32.80
2019-01-31T12:12:07.701Z,36.63
2019-01-31T12:14:37.766Z,30.13
2019-01-31T12:17:10.337Z,29.17
2019-01-31T12:19:40.681Z,36.13
2019-01-31T12:22:10.938Z,37.63
2019-01-31T12:24:41.394Z,32.50
2019-01-31T12:27:11.714Z,43.77
2019-01-31T12:29:41.850Z,35.50
2019-01-31T12:32:12.385Z,38.60
2019-01-31T12:34:43.193Z,41.30
2019-01-31T12:37:14.757Z,35.30
2019-01-31T12:39:45.402Z,36.47
2019-01-31T12:42:15.533Z,32.87
2019-01-31T12:44:45.661Z,35.10
2019-01-31T12:47:15.725Z,37.03
2019-01-31T12:49:46.930Z,35.40
2019-01-31T12:52:17.025Z,30.47
2019-01-31T12:54:48.420Z,40.73
2019-01-31T12:57:18.486Z,37.00
2019-01-31T12:59:48.925Z,38.57
2019-01-31T13:02:19.001Z,34.05
2019-01-31T13:04:49.229Z,38.42
2019-01-31T13:07:19.312Z,31.57
2019-01-31T13:09:49.432Z,38.33
2019-01-31T13:12:19.601Z,36.33
2019-01-31T13:14:49.713Z,36.13
2019-01-31T13:17:20.141Z,30.43
2019-01-31T13:19:50.309Z,32.37
2019-01-31T13:22:20.454Z,33.93
2019-01-31T13:24:50.845Z,31.23
2019-01-31T13:27:21.565Z,37.95
2019-01-31T13:29:52.369Z,33.40
2019-01-31T13:32:22.973Z,32.77
2019-01-31T13:34:53.039Z,31.00
2019-01-31T13:37:23.157Z,31.57
2019-01-31T13:39:53.845Z,30.37
2019-01-31T13:42:24.205Z,33.42
2019-01-31T13:44:54.764Z,28.60
2019-01-31T13:47:25.061Z,30.60
2019-01-31T13:49:55.378Z,33.83
2019-01-31T13:52:25.497Z,27.70
2019-01-31T13:54:55.903Z,28.80
2019-01-31T13:57:26.441Z,42.93
2019-01-31T13:59:56.525Z,29.60
2019-01-31T14:02:26.617Z,35.43
2019-01-31T14:04:56.945Z,36.63
2019-01-31T14:07:28.034Z,40.55
2019-01-31T14:09:58.335Z,47.00
2019-01-31T14:12:28.681Z,44.70
2019-01-31T14:14:58.735Z,39.97
2019-01-31T14:17:29.193Z,43.73
2019-01-31T14:19:59.521Z,43.42
2019-01-31T14:22:29.905Z,50.50
2019-01-31T14:25:00.358Z,48.15
2019-01-31T14:27:31.294Z,55.43
2019-01-31T14:30:01.535Z,48.80
2019-01-31T14:32:32.311Z,46.53
2019-01-31T14:35:02.674Z,51.90
2019-01-31T14:37:32.863Z,51.55
2019-01-31T14:40:03.077Z,45.52
2019-01-31T14:42:33.366Z,59.80
2019-01-31T14:45:04.301Z,48.70
2019-01-31T14:47:34.457Z,45.15
2019-01-31T14:50:06.653Z,50.80
2019-01-31T14:52:36.860Z,51.10
2019-01-31T14:55:07.974Z,53.25
2019-01-31T14:57:38.302Z,45.33
2019-01-31T15:00:12.390Z,49.00
2019-01-31T15:02:42.729Z,45.43
2019-01-31T15:05:15.362Z,47.55
2019-01-31T15:07:45.580Z,48.73
2019-01-31T15:10:18.104Z,55.00
2019-01-31T15:12:49.262Z,49.27
2019-01-31T15:15:20.658Z,44.90
2019-01-31T15:17:53.026Z,53.00
2019-01-31T15:20:37.661Z,51.85
2019-01-31T15:23:00.106Z,56.45
2019-01-31T15:25:30.285Z,45.67
2019-01-31T15:28:01.156Z,55.75
2019-01-31T15:30:32.737Z,50.73
2019-01-31T15:33:06.033Z,54.08
2019-01-31T15:35:36.111Z,46.55
2019-01-31T15:38:06.706Z,56.85
2019-01-31T15:40:40.011Z,54.18
2019-01-31T15:43:10.147Z,47.70
2019-01-31T15:45:40.479Z,50.10
2019-01-31T15:48:11.155Z,52.70
2019-01-31T15:50:42.209Z,53.28
2019-01-31T15:53:12.362Z,53.25
2019-01-31T15:55:43.710Z,49.05
2019-01-31T15:58:13.773Z,55.52
2019-01-31T16:00:46.774Z,53.40
2019-01-31T16:03:19.029Z,58.00
2019-01-31T16:05:49.549Z,46.13
2019-01-31T16:08:19.972Z,46.90
2019-01-31T16:10:50.563Z,41.53
2019-01-31T16:13:20.644Z,49.93
2019-01-31T16:15:52.364Z,55.75
2019-01-31T16:18:22.890Z,59.83
2019-01-31T16:20:52.998Z,45.20
2019-01-31T16:23:23.345Z,56.58
2019-01-31T16:25:53.476Z,50.67
2019-01-31T16:28:23.840Z,49.83
2019-01-31T16:30:53.941Z,54.38
2019-01-31T16:33:24.550Z,59.20
2019-01-31T16:35:54.621Z,49.17
2019-01-31T16:38:24.994Z,51.02
2019-01-31T16:40:55.674Z,42.83
2019-01-31T16:43:26.162Z,51.05
2019-01-31T16:45:57.409Z,51.42
2019-01-31T16:48:27.771Z,47.88
2019-01-31T16:50:58.214Z,53.85
2019-01-31T16:53:28.294Z,51.28
2019-01-31T16:55:58.654Z,46.63
2019-01-31T16:58:29.014Z,56.42
2019-01-31T17:00:59.209Z,55.70
2019-01-31T17:03:29.769Z,49.40
2019-01-31T17:06:00.146Z,53.80
2019-01-31T17:08:30.593Z,47.25
2019-01-31T17:11:01.121Z,51.35
2019-01-31T17:13:31.306Z,50.33
2019-01-31T17:16:01.753Z,52.40
2019-01-31T17:18:33.030Z,57.20
2019-01-31T17:21:03.348Z,50.85
2019-01-31T17:23:34.141Z,41.42
2019-01-31T17:26:04.739Z,47.62
2019-01-31T17:28:34.845Z,50.43
2019-01-31T17:31:05.302Z,49.38
2019-01-31T17:33:37.406Z,42.55
2019-01-31T17:36:07.577Z,46.73
2019-01-31T17:38:37.645Z,43.25
2019-01-31T17:41:07.909Z,51.98
2019-01-31T17:43:38.241Z,57.73
2019-01-31T17:46:11.750Z,56.73
2019-01-31T17:48:43.054Z,50.50
2019-01-31T17:51:15.017Z,48.08
2019-01-31T17:53:45.397Z,50.92
2019-01-31T17:56:15.536Z,54.85
2019-01-31T17:58:45.877Z,54.95
2019-01-31T18:01:16.607Z,45.35
2019-01-31T18:03:46.695Z,49.53
2019-01-31T18:06:28.030Z,50.98
2019-01-31T18:08:58.350Z,45.43
2019-01-31T18:11:28.738Z,48.50
2019-01-31T18:13:58.823Z,48.87
2019-01-31T18:16:29.234Z,51.35
2019-01-31T18:18:59.365Z,49.98
2019-01-31T18:21:33.537Z,47.85
2019-01-31T18:24:03.951Z,54.88
2019-01-31T18:26:34.122Z,47.98
2019-01-31T18:29:04.814Z,54.30
2019-01-31T18:31:34.897Z,48.63
2019-01-31T18:34:12.534Z,50.52
2019-01-31T18:36:43.097Z,49.38
2019-01-31T18:39:13.498Z,60.83
2019-01-31T18:41:43.705Z,52.93
2019-01-31T18:44:13.849Z,61.42
2019-01-31T18:46:44.043Z,55.90
2019-01-31T18:49:14.120Z,53.15
2019-01-31T18:51:44.303Z,57.30
2019-01-31T18:54:20.927Z,55.25
2019-01-31T18:56:51.194Z,62.13
2019-01-31T18:59:21.517Z,58.25
2019-01-31T19:01:51.722Z,61.00
2019-01-31T19:04:22.281Z,55.50
2019-01-31T19:07:08.826Z,59.65
2019-01-31T19:09:38.906Z,68.92
2019-01-31T19:12:10.286Z,59.85
2019-01-31T19:14:40.386Z,61.02
2019-01-31T19:17:10.856Z,63.13
2019-01-31T19:19:40.949Z,67.22
2019-01-31T19:22:11.327Z,56.02
2019-01-31T19:24:41.662Z,57.48
2019-01-31T19:27:12.159Z,60.12
2019-01-31T19:29:42.282Z,58.38
2019-01-31T19:32:12.678Z,62.78
2019-01-31T19:34:42.798Z,50.38
2019-01-31T19:37:13.008Z,61.13
2019-01-31T19:40:13.198Z,61.08
2019-01-31T19:42:43.469Z,57.58
2019-01-31T19:45:21.826Z,62.73
2019-01-31T19:47:52.197Z,60.15
2019-01-31T19:50:23.022Z,67.70
2019-01-31T19:52:55.059Z,67.47
2019-01-31T19:55:26.725Z,59.20
2019-01-31T19:58:04.657Z,63.10
2019-01-31T20:00:34.965Z,65.72
2019-01-31T20:03:08.521Z,63.90
2019-01-31T20:05:38.822Z,61.65
2019-01-31T20:08:11.314Z,61.15
2019-01-31T20:10:48.604Z,63.80
2019-01-31T20:13:18.677Z,65.20
2019-01-31T20:15:50.257Z,59.98
2019-01-31T20:18:20.321Z,63.60
2019-01-31T20:20:50.718Z,66.72
2019-01-31T20:23:20.893Z,70.80
2019-01-31T20:25:51.045Z,68.42
2019-01-31T20:28:21.629Z,75.15
2019-01-31T20:30:51.806Z,73.95
2019-01-31T20:33:22.045Z,66.22
2019-01-31T20:35:52.434Z,71.97
2019-01-31T20:38:22.514Z,68.80
2019-01-31T20:40:52.961Z,65.05
2019-01-31T20:43:23.033Z,75.35
2019-01-31T20:45:53.163Z,91.00
2019-01-31T20:48:23.683Z,70.42
2019-01-31T20:50:54.054Z,61.88
2019-01-31T20:53:24.592Z,86.82
2019-01-31T20:55:54.954Z,63.95
2019-01-31T20:58:25.340Z,66.30
2019-01-31T21:00:55.872Z,72.20
2019-01-31T21:03:27.317Z,71.65
2019-01-31T21:05:57.638Z,71.28
2019-01-31T21:08:27.801Z,75.52
2019-01-31T21:10:57.905Z,74.07
2019-01-31T21:13:28.313Z,70.80
2019-01-31T21:15:58.402Z,76.35
2019-01-31T21:18:29.181Z,79.17
2019-01-31T21:20:59.770Z,56.60
2019-01-31T21:23:32.414Z,72.37
2019-01-31T21:26:02.743Z,68.17
2019-01-31T21:28:33.089Z,66.15
2019-01-31T21:31:03.572Z,60.88
2019-01-31T21:33:33.926Z,76.85
2019-01-31T21:36:04.418Z,78.83
2019-01-31T21:38:34.533Z,70.60
2019-01-31T21:41:06.274Z,67.92
2019-01-31T21:43:36.361Z,81.22
2019-01-31T21:46:06.727Z,84.52
2019-01-31T21:48:36.827Z,72.90
2019-01-31T21:51:07.246Z,74.10
2019-01-31T21:53:43.434Z,81.22
2019-01-31T21:56:13.759Z,68.17
2019-01-31T21:58:43.833Z,81.72
2019-01-31T22:01:14.253Z,68.05
2019-01-31T22:03:44.531Z,67.75
2019-01-31T22:06:22.298Z,72.00
2019-01-31T22:08:46.990Z,82.57
2019-01-31T22:11:17.365Z,68.02
2019-01-31T22:13:47.696Z,65.50
2019-01-31T22:16:19.006Z,68.72
2019-01-31T22:18:49.553Z,74.37
2019-01-31T22:21:19.635Z,67.80
2019-01-31T22:23:50.270Z,62.70
2019-01-31T22:26:20.352Z,61.30
2019-01-31T22:28:50.690Z,68.02
2019-01-31T22:31:20.809Z,73.42
2019-01-31T22:33:51.113Z,74.25
2019-01-31T22:36:21.683Z,73.87
2019-01-31T22:38:52.298Z,65.42
2019-01-31T22:41:22.683Z,66.90
2019-01-31T22:43:52.802Z,65.15
2019-01-31T22:46:23.189Z,75.28
2019-01-31T22:48:53.529Z,66.57
2019-01-31T22:51:23.645Z,74.82
2019-01-31T22:53:53.855Z,65.67
2019-01-31T22:56:23.913Z,68.70
2019-01-31T22:58:54.358Z,67.30
2019-01-31T23:01:33.715Z,68.10
2019-01-31T23:04:04.178Z,72.70
2019-01-31T23:06:34.266Z,63.08
2019-01-31T23:09:08.369Z,68.67
2019-01-31T23:11:38.678Z,65.83
2019-01-31T23:14:09.005Z,58.80
2019-01-31T23:16:39.402Z,72.87
2019-01-31T23:19:09.860Z,77.47
2019-01-31T23:21:40.249Z,76.75
2019-01-31T23:24:10.650Z,76.90
2019-01-31T23:26:40.992Z,76.72
2019-01-31T23:29:11.570Z,74.27
2019-01-31T23:31:41.705Z,69.32
2019-01-31T23:34:11.990Z,79.17
2019-01-31T23:36:42.293Z,81.40
2019-01-31T23:39:15.535Z,81.50
2019-01-31T23:41:45.869Z,73.83
2019-01-31T23:44:16.249Z,74.12
2019-01-31T23:46:46.581Z,72.00
2019-01-31T23:49:16.933Z,78.95
2019-01-31T23:51:47.329Z,77.03
2019-01-31T23:54:17.414Z,75.00
2019-01-31T23:56:49.648Z,69.42
2019-01-31T23:59:19.773Z,76.17
